sensor_id;sensor_type;location;lat;lon;timestamp;temperature;humidity
6520;DHT22;3293;51.690;5.982;2023-06-10T00:02:43;21.40;54.50
6520;DHT22;3293;51.690;5.982;2023-06-10T00:07:44;21.30;55.90
6520;DHT22;3293;51.690;5.982;2023-06-10T00:12:45;21.30;57.10
6520;DHT22;3293;51.690;5.982;2023-06-10T00:17:45;21.20;58.20
6520;DHT22;3293;51.690;5.982;2023-06-10T00:22:45;21.00;59.90
6520;DHT22;3293;51.690;5.982;2023-06-10T00:27:46;20.90;60.90
6520;DHT22;3293;51.690;5.982;2023-06-10T00:32:46;20.90;62.40
6520;DHT22;3293;51.690;5.982;2023-06-10T00:37:46;20.80;64.20
6520;DHT22;3293;51.690;5.982;2023-06-10T00:42:46;20.60;66.60
6520;DHT22;3293;51.690;5.982;2023-06-10T00:47:46;20.50;69.20
6520;DHT22;3293;51.690;5.982;2023-06-10T00:52:46;20.40;71.70
6520;DHT22;3293;51.690;5.982;2023-06-10T00:57:48;20.30;75.50
6520;DHT22;3293;51.690;5.982;2023-06-10T01:02:48;20.30;76.30
6520;DHT22;3293;51.690;5.982;2023-06-10T01:13:18;20.10;79.80
6520;DHT22;3293;51.690;5.982;2023-06-10T01:18:24;19.90;81.10
6520;DHT22;3293;51.690;5.982;2023-06-10T01:23:30;19.90;81.70
6520;DHT22;3293;51.690;5.982;2023-06-10T01:28:38;19.90;82.40
6520;DHT22;3293;51.690;5.982;2023-06-10T01:33:43;19.80;84.00
6520;DHT22;3293;51.690;5.982;2023-06-10T01:38:45;19.80;84.50
6520;DHT22;3293;51.690;5.982;2023-06-10T01:43:46;19.70;86.10
6520;DHT22;3293;51.690;5.982;2023-06-10T01:48:45;19.70;86.50
6520;DHT22;3293;51.690;5.982;2023-06-10T01:53:45;19.60;87.40
6520;DHT22;3293;51.690;5.982;2023-06-10T01:58:46;19.60;89.10
6520;DHT22;3293;51.690;5.982;2023-06-10T02:03:46;19.40;90.30
6520;DHT22;3293;51.690;5.982;2023-06-10T02:08:47;19.40;90.50
6520;DHT22;3293;51.690;5.982;2023-06-10T02:13:48;19.40;90.70
6520;DHT22;3293;51.690;5.982;2023-06-10T02:18:47;19.30;90.90
6520;DHT22;3293;51.690;5.982;2023-06-10T02:23:49;19.20;91.00
6520;DHT22;3293;51.690;5.982;2023-06-10T02:28:48;19.10;91.20
6520;DHT22;3293;51.690;5.982;2023-06-10T02:33:49;19.10;91.20
6520;DHT22;3293;51.690;5.982;2023-06-10T02:38:49;19.10;91.20
6520;DHT22;3293;51.690;5.982;2023-06-10T02:43:49;19.00;91.00
6520;DHT22;3293;51.690;5.982;2023-06-10T02:48:49;19.00;91.40
6520;DHT22;3293;51.690;5.982;2023-06-10T02:53:51;18.90;91.50
6520;DHT22;3293;51.690;5.982;2023-06-10T02:58:51;18.80;91.80
6520;DHT22;3293;51.690;5.982;2023-06-10T03:03:51;18.80;91.50
6520;DHT22;3293;51.690;5.982;2023-06-10T03:08:52;18.70;91.40
6520;DHT22;3293;51.690;5.982;2023-06-10T03:13:52;18.60;91.60
6520;DHT22;3293;51.690;5.982;2023-06-10T03:18:53;18.50;91.70
6520;DHT22;3293;51.690;5.982;2023-06-10T03:23:53;18.50;92.00
6520;DHT22;3293;51.690;5.982;2023-06-10T03:28:54;18.40;92.60
6520;DHT22;3293;51.690;5.982;2023-06-10T03:33:54;18.30;93.00
6520;DHT22;3293;51.690;5.982;2023-06-10T03:38:55;18.20;93.60
6520;DHT22;3293;51.690;5.982;2023-06-10T03:43:56;18.10;93.60
6520;DHT22;3293;51.690;5.982;2023-06-10T03:48:56;18.10;93.60
6520;DHT22;3293;51.690;5.982;2023-06-10T03:53:56;18.20;93.30
6520;DHT22;3293;51.690;5.982;2023-06-10T03:58:56;18.20;93.30
6520;DHT22;3293;51.690;5.982;2023-06-10T04:03:56;18.20;93.40
6520;DHT22;3293;51.690;5.982;2023-06-10T04:08:56;18.20;93.40
6520;DHT22;3293;51.690;5.982;2023-06-10T04:13:56;18.30;93.20
6520;DHT22;3293;51.690;5.982;2023-06-10T04:18:57;18.30;92.90
6520;DHT22;3293;51.690;5.982;2023-06-10T04:23:56;18.40;92.70
6520;DHT22;3293;51.690;5.982;2023-06-10T04:28:57;18.40;92.90
6520;DHT22;3293;51.690;5.982;2023-06-10T04:33:57;18.50;92.70
6520;DHT22;3293;51.690;5.982;2023-06-10T04:38:56;18.60;92.70
6520;DHT22;3293;51.690;5.982;2023-06-10T04:43:56;18.70;92.10
6520;DHT22;3293;51.690;5.982;2023-06-10T04:48:57;18.80;91.90
6520;DHT22;3293;51.690;5.982;2023-06-10T04:53:58;18.90;91.70
6520;DHT22;3293;51.690;5.982;2023-06-10T04:58:58;19.10;90.90
6520;DHT22;3293;51.690;5.982;2023-06-10T05:03:58;19.70;87.80
6520;DHT22;3293;51.690;5.982;2023-06-10T05:08:58;21.10;74.40
6520;DHT22;3293;51.690;5.982;2023-06-10T05:13:58;23.10;56.90
6520;DHT22;3293;51.690;5.982;2023-06-10T05:18:58;24.30;46.20
6520;DHT22;3293;51.690;5.982;2023-06-10T05:23:58;25.30;39.60
6520;DHT22;3293;51.690;5.982;2023-06-10T05:28:59;26.10;32.30
6520;DHT22;3293;51.690;5.982;2023-06-10T05:33:59;26.20;31.10
6520;DHT22;3293;51.690;5.982;2023-06-10T05:38:59;26.20;30.80
6520;DHT22;3293;51.690;5.982;2023-06-10T05:43:58;26.80;28.20
6520;DHT22;3293;51.690;5.982;2023-06-10T05:48:58;27.40;26.40
6520;DHT22;3293;51.690;5.982;2023-06-10T05:53:59;27.40;25.80
6520;DHT22;3293;51.690;5.982;2023-06-10T05:58:59;27.30;25.20
6520;DHT22;3293;51.690;5.982;2023-06-10T06:03:59;27.70;25.10
6520;DHT22;3293;51.690;5.982;2023-06-10T06:08:59;27.80;23.40
6520;DHT22;3293;51.690;5.982;2023-06-10T06:13:59;27.40;25.30
6520;DHT22;3293;51.690;5.982;2023-06-10T06:18:59;28.00;23.50
6520;DHT22;3293;51.690;5.982;2023-06-10T06:23:59;28.60;21.70
6520;DHT22;3293;51.690;5.982;2023-06-10T06:28:59;28.30;21.90
6520;DHT22;3293;51.690;5.982;2023-06-10T06:33:59;28.60;21.70
6520;DHT22;3293;51.690;5.982;2023-06-10T06:38:59;28.50;21.10
6520;DHT22;3293;51.690;5.982;2023-06-10T06:43:59;28.80;20.50
6520;DHT22;3293;51.690;5.982;2023-06-10T06:48:59;29.50;19.60
6520;DHT22;3293;51.690;5.982;2023-06-10T06:53:59;30.00;18.90
6520;DHT22;3293;51.690;5.982;2023-06-10T06:58:59;30.20;17.90
6520;DHT22;3293;51.690;5.982;2023-06-10T07:03:59;29.70;18.00
6520;DHT22;3293;51.690;5.982;2023-06-10T07:08:59;29.90;17.90
6520;DHT22;3293;51.690;5.982;2023-06-10T07:13:59;30.60;16.40
6520;DHT22;3293;51.690;5.982;2023-06-10T07:18:59;31.70;15.00
6520;DHT22;3293;51.690;5.982;2023-06-10T07:24:00;31.50;15.40
6520;DHT22;3293;51.690;5.982;2023-06-10T07:29:00;31.90;14.00
6520;DHT22;3293;51.690;5.982;2023-06-10T07:33:59;31.50;14.90
6520;DHT22;3293;51.690;5.982;2023-06-10T07:39:00;31.90;14.50
6520;DHT22;3293;51.690;5.982;2023-06-10T07:44:00;32.50;13.00
6520;DHT22;3293;51.690;5.982;2023-06-10T07:49:01;32.60;13.20
6520;DHT22;3293;51.690;5.982;2023-06-10T07:54:03;32.10;13.40
6520;DHT22;3293;51.690;5.982;2023-06-10T07:59:02;31.90;13.10
6520;DHT22;3293;51.690;5.982;2023-06-10T08:04:04;32.10;13.60
6520;DHT22;3293;51.690;5.982;2023-06-10T08:09:04;32.10;13.10
6520;DHT22;3293;51.690;5.982;2023-06-10T08:14:05;32.30;13.20
6520;DHT22;3293;51.690;5.982;2023-06-10T08:19:04;33.00;12.80
6520;DHT22;3293;51.690;5.982;2023-06-10T08:24:05;32.80;12.00
6520;DHT22;3293;51.690;5.982;2023-06-10T08:29:06;33.30;11.60
6520;DHT22;3293;51.690;5.982;2023-06-10T08:34:06;33.50;11.30
6520;DHT22;3293;51.690;5.982;2023-06-10T08:39:06;34.10;11.20
6520;DHT22;3293;51.690;5.982;2023-06-10T08:44:24;34.10;10.30
6520;DHT22;3293;51.690;5.982;2023-06-10T08:49:29;34.10;10.40
6520;DHT22;3293;51.690;5.982;2023-06-10T08:54:32;34.20;9.80
6520;DHT22;3293;51.690;5.982;2023-06-10T08:59:32;34.00;11.00
6520;DHT22;3293;51.690;5.982;2023-06-10T09:04:33;33.00;11.70
6520;DHT22;3293;51.690;5.982;2023-06-10T09:09:34;33.10;12.30
6520;DHT22;3293;51.690;5.982;2023-06-10T09:14:35;32.80;12.20
6520;DHT22;3293;51.690;5.982;2023-06-10T09:19:35;32.60;12.70
6520;DHT22;3293;51.690;5.982;2023-06-10T09:24:36;32.80;11.90
6520;DHT22;3293;51.690;5.982;2023-06-10T09:29:55;33.50;10.80
6520;DHT22;3293;51.690;5.982;2023-06-10T09:34:57;34.20;10.70
6520;DHT22;3293;51.690;5.982;2023-06-10T09:40:05;34.30;10.60
6520;DHT22;3293;51.690;5.982;2023-06-10T09:45:07;33.80;10.70
6520;DHT22;3293;51.690;5.982;2023-06-10T09:50:07;34.00;10.70
6520;DHT22;3293;51.690;5.982;2023-06-10T09:55:08;33.50;12.20
6520;DHT22;3293;51.690;5.982;2023-06-10T10:00:11;33.10;11.80
6520;DHT22;3293;51.690;5.982;2023-06-10T10:05:13;32.20;14.00
6520;DHT22;3293;51.690;5.982;2023-06-10T10:10:15;31.40;13.20
6520;DHT22;3293;51.690;5.982;2023-06-10T10:15:17;30.70;15.70
6520;DHT22;3293;51.690;5.982;2023-06-10T10:20:22;30.30;17.30
6520;DHT22;3293;51.690;5.982;2023-06-10T10:25:32;30.00;17.00
6520;DHT22;3293;51.690;5.982;2023-06-10T10:30:40;29.90;17.60
6520;DHT22;3293;51.690;5.982;2023-06-10T10:35:41;29.90;17.90
6520;DHT22;3293;51.690;5.982;2023-06-10T10:40:41;29.70;17.60
6520;DHT22;3293;51.690;5.982;2023-06-10T10:45:46;29.70;17.00
6520;DHT22;3293;51.690;5.982;2023-06-10T10:50:56;29.70;16.70
6520;DHT22;3293;51.690;5.982;2023-06-10T11:01:12;29.80;15.90
6520;DHT22;3293;51.690;5.982;2023-06-10T11:06:17;29.80;15.80
6520;DHT22;3293;51.690;5.982;2023-06-10T11:11:26;29.90;14.60
6520;DHT22;3293;51.690;5.982;2023-06-10T11:16:28;29.80;14.30
6520;DHT22;3293;51.690;5.982;2023-06-10T11:21:28;29.80;14.30
6520;DHT22;3293;51.690;5.982;2023-06-10T11:31:33;29.40;14.10
6520;DHT22;3293;51.690;5.982;2023-06-10T11:36:40;29.50;15.00
6520;DHT22;3293;51.690;5.982;2023-06-10T11:41:42;29.70;15.80
6520;DHT22;3293;51.690;5.982;2023-06-10T11:46:42;29.70;13.40
6520;DHT22;3293;51.690;5.982;2023-06-10T11:51:42;29.50;13.60
6520;DHT22;3293;51.690;5.982;2023-06-10T11:56:48;29.50;12.30
6520;DHT22;3293;51.690;5.982;2023-06-10T12:01:48;29.50;14.50
6520;DHT22;3293;51.690;5.982;2023-06-10T12:06:50;29.70;12.40
6520;DHT22;3293;51.690;5.982;2023-06-10T12:11:52;29.90;12.10
6520;DHT22;3293;51.690;5.982;2023-06-10T12:16:52;29.90;12.90
6520;DHT22;3293;51.690;5.982;2023-06-10T12:21:52;30.10;12.00
6520;DHT22;3293;51.690;5.982;2023-06-10T12:26:53;30.00;12.20
6520;DHT22;3293;51.690;5.982;2023-06-10T12:32:04;29.80;11.60
6520;DHT22;3293;51.690;5.982;2023-06-10T12:37:11;29.90;12.10
6520;DHT22;3293;51.690;5.982;2023-06-10T12:42:14;29.90;11.90
6520;DHT22;3293;51.690;5.982;2023-06-10T12:47:14;30.00;12.50
6520;DHT22;3293;51.690;5.982;2023-06-10T12:52:14;30.20;11.20
6520;DHT22;3293;51.690;5.982;2023-06-10T12:57:14;30.00;10.60
6520;DHT22;3293;51.690;5.982;2023-06-10T13:02:14;29.90;11.10
6520;DHT22;3293;51.690;5.982;2023-06-10T13:07:15;29.90;11.00
6520;DHT22;3293;51.690;5.982;2023-06-10T13:12:15;29.90;11.30
6520;DHT22;3293;51.690;5.982;2023-06-10T13:17:15;29.90;10.00
6520;DHT22;3293;51.690;5.982;2023-06-10T13:22:14;30.10;9.90
6520;DHT22;3293;51.690;5.982;2023-06-10T13:27:15;30.10;9.80
6520;DHT22;3293;51.690;5.982;2023-06-10T13:32:15;30.10;9.70
6520;DHT22;3293;51.690;5.982;2023-06-10T13:37:16;30.10;9.80
6520;DHT22;3293;51.690;5.982;2023-06-10T13:42:19;30.00;10.90
6520;DHT22;3293;51.690;5.982;2023-06-10T13:47:19;30.00;10.80
6520;DHT22;3293;51.690;5.982;2023-06-10T13:52:20;30.20;11.10
6520;DHT22;3293;51.690;5.982;2023-06-10T13:57:20;30.00;9.70
6520;DHT22;3293;51.690;5.982;2023-06-10T14:02:20;30.00;10.10
6520;DHT22;3293;51.690;5.982;2023-06-10T14:07:20;29.90;9.50
6520;DHT22;3293;51.690;5.982;2023-06-10T14:12:20;30.00;9.30
6520;DHT22;3293;51.690;5.982;2023-06-10T14:17:20;30.00;9.30
6520;DHT22;3293;51.690;5.982;2023-06-10T14:22:22;30.10;10.60
6520;DHT22;3293;51.690;5.982;2023-06-10T14:27:22;30.10;10.20
6520;DHT22;3293;51.690;5.982;2023-06-10T14:32:22;29.90;11.00
6520;DHT22;3293;51.690;5.982;2023-06-10T14:37:22;30.10;11.10
6520;DHT22;3293;51.690;5.982;2023-06-10T14:42:22;30.20;11.30
6520;DHT22;3293;51.690;5.982;2023-06-10T14:47:22;30.10;10.90
6520;DHT22;3293;51.690;5.982;2023-06-10T14:52:22;29.90;10.80
6520;DHT22;3293;51.690;5.982;2023-06-10T14:57:22;29.90;11.20
6520;DHT22;3293;51.690;5.982;2023-06-10T15:02:22;30.00;11.70
6520;DHT22;3293;51.690;5.982;2023-06-10T15:07:23;29.90;10.60
6520;DHT22;3293;51.690;5.982;2023-06-10T15:12:24;29.90;10.60
6520;DHT22;3293;51.690;5.982;2023-06-10T15:17:25;29.80;11.30
6520;DHT22;3293;51.690;5.982;2023-06-10T15:22:25;29.80;11.30
6520;DHT22;3293;51.690;5.982;2023-06-10T15:27:25;29.80;11.20
6520;DHT22;3293;51.690;5.982;2023-06-10T15:32:26;29.80;10.60
6520;DHT22;3293;51.690;5.982;2023-06-10T15:37:25;29.80;10.50
6520;DHT22;3293;51.690;5.982;2023-06-10T15:42:26;29.80;11.10
6520;DHT22;3293;51.690;5.982;2023-06-10T15:47:26;29.90;11.00
6520;DHT22;3293;51.690;5.982;2023-06-10T15:52:25;29.90;10.80
6520;DHT22;3293;51.690;5.982;2023-06-10T15:57:26;29.90;10.90
6520;DHT22;3293;51.690;5.982;2023-06-10T16:02:26;29.80;10.80
6520;DHT22;3293;51.690;5.982;2023-06-10T16:07:26;29.50;11.10
6520;DHT22;3293;51.690;5.982;2023-06-10T16:12:26;29.60;11.40
6520;DHT22;3293;51.690;5.982;2023-06-10T16:17:26;29.70;11.80
6520;DHT22;3293;51.690;5.982;2023-06-10T16:22:26;29.70;12.10
6520;DHT22;3293;51.690;5.982;2023-06-10T16:27:26;29.50;11.60
6520;DHT22;3293;51.690;5.982;2023-06-10T16:32:26;29.70;12.80
6520;DHT22;3293;51.690;5.982;2023-06-10T16:37:26;29.70;11.70
6520;DHT22;3293;51.690;5.982;2023-06-10T16:42:26;29.60;12.50
6520;DHT22;3293;51.690;5.982;2023-06-10T16:47:26;29.50;11.50
6520;DHT22;3293;51.690;5.982;2023-06-10T16:52:26;29.40;12.60
6520;DHT22;3293;51.690;5.982;2023-06-10T16:57:26;29.40;12.50
6520;DHT22;3293;51.690;5.982;2023-06-10T17:02:26;29.40;12.30
6520;DHT22;3293;51.690;5.982;2023-06-10T17:07:26;29.40;13.40
6520;DHT22;3293;51.690;5.982;2023-06-10T17:12:27;29.30;13.10
6520;DHT22;3293;51.690;5.982;2023-06-10T17:17:27;29.30;13.80
6520;DHT22;3293;51.690;5.982;2023-06-10T17:22:27;29.30;13.70
6520;DHT22;3293;51.690;5.982;2023-06-10T17:27:28;29.20;13.60
6520;DHT22;3293;51.690;5.982;2023-06-10T17:32:28;29.10;14.40
6520;DHT22;3293;51.690;5.982;2023-06-10T17:37:28;29.00;14.40
6520;DHT22;3293;51.690;5.982;2023-06-10T17:42:28;29.00;15.20
6520;DHT22;3293;51.690;5.982;2023-06-10T17:47:27;29.00;15.20
6520;DHT22;3293;51.690;5.982;2023-06-10T17:52:28;28.80;15.40
6520;DHT22;3293;51.690;5.982;2023-06-10T17:57:28;28.70;16.40
6520;DHT22;3293;51.690;5.982;2023-06-10T18:02:30;28.60;16.40
6520;DHT22;3293;51.690;5.982;2023-06-10T18:07:30;28.50;16.80
6520;DHT22;3293;51.690;5.982;2023-06-10T18:12:31;28.50;16.40
6520;DHT22;3293;51.690;5.982;2023-06-10T18:17:32;28.40;17.20
6520;DHT22;3293;51.690;5.982;2023-06-10T18:22:32;28.20;17.80
6520;DHT22;3293;51.690;5.982;2023-06-10T18:27:33;28.20;17.80
6520;DHT22;3293;51.690;5.982;2023-06-10T18:32:33;28.10;18.40
6520;DHT22;3293;51.690;5.982;2023-06-10T18:37:33;28.00;18.80
6520;DHT22;3293;51.690;5.982;2023-06-10T18:42:33;27.90;19.00
6520;DHT22;3293;51.690;5.982;2023-06-10T18:47:33;27.80;19.60
6520;DHT22;3293;51.690;5.982;2023-06-10T18:52:33;27.70;19.30
6520;DHT22;3293;51.690;5.982;2023-06-10T18:57:33;27.60;19.70
6520;DHT22;3293;51.690;5.982;2023-06-10T19:02:34;27.50;19.90
6520;DHT22;3293;51.690;5.982;2023-06-10T19:07:35;27.40;20.20
6520;DHT22;3293;51.690;5.982;2023-06-10T19:12:35;27.30;20.10
6520;DHT22;3293;51.690;5.982;2023-06-10T19:17:35;27.10;21.10
6520;DHT22;3293;51.690;5.982;2023-06-10T19:22:35;27.10;21.20
6520;DHT22;3293;51.690;5.982;2023-06-10T19:27:35;26.90;21.70
6520;DHT22;3293;51.690;5.982;2023-06-10T19:32:35;26.70;22.30
6520;DHT22;3293;51.690;5.982;2023-06-10T19:37:35;26.50;23.10
6520;DHT22;3293;51.690;5.982;2023-06-10T19:42:35;26.30;23.90
6520;DHT22;3293;51.690;5.982;2023-06-10T19:47:38;26.20;24.70
6520;DHT22;3293;51.690;5.982;2023-06-10T19:52:38;26.10;25.40
6520;DHT22;3293;51.690;5.982;2023-06-10T19:57:38;26.00;26.00
6520;DHT22;3293;51.690;5.982;2023-06-10T20:02:39;25.80;26.40
6520;DHT22;3293;51.690;5.982;2023-06-10T20:07:39;25.70;26.90
6520;DHT22;3293;51.690;5.982;2023-06-10T20:12:40;25.50;27.90
6520;DHT22;3293;51.690;5.982;2023-06-10T20:17:40;25.40;28.60
6520;DHT22;3293;51.690;5.982;2023-06-10T20:22:41;25.20;29.20
6520;DHT22;3293;51.690;5.982;2023-06-10T20:27:41;25.00;29.80
6520;DHT22;3293;51.690;5.982;2023-06-10T20:32:41;24.90;30.40
6520;DHT22;3293;51.690;5.982;2023-06-10T20:37:41;24.90;30.50
6520;DHT22;3293;51.690;5.982;2023-06-10T20:42:42;24.70;31.20
6520;DHT22;3293;51.690;5.982;2023-06-10T20:47:42;24.70;31.50
6520;DHT22;3293;51.690;5.982;2023-06-10T20:52:42;24.60;32.00
6520;DHT22;3293;51.690;5.982;2023-06-10T20:57:42;24.50;32.20
6520;DHT22;3293;51.690;5.982;2023-06-10T21:02:43;24.30;32.70
6520;DHT22;3293;51.690;5.982;2023-06-10T21:07:43;24.30;33.50
6520;DHT22;3293;51.690;5.982;2023-06-10T21:12:46;24.10;34.80
6520;DHT22;3293;51.690;5.982;2023-06-10T21:17:46;24.00;35.80
6520;DHT22;3293;51.690;5.982;2023-06-10T21:22:47;24.00;36.10
6520;DHT22;3293;51.690;5.982;2023-06-10T21:27:47;23.90;36.30
6520;DHT22;3293;51.690;5.982;2023-06-10T21:32:49;23.90;36.50
6520;DHT22;3293;51.690;5.982;2023-06-10T21:37:50;23.80;37.70
6520;DHT22;3293;51.690;5.982;2023-06-10T21:42:50;23.70;38.50
6520;DHT22;3293;51.690;5.982;2023-06-10T21:47:51;23.50;40.20
6520;DHT22;3293;51.690;5.982;2023-06-10T21:52:51;23.40;41.00
6520;DHT22;3293;51.690;5.982;2023-06-10T21:57:51;23.30;42.10
6520;DHT22;3293;51.690;5.982;2023-06-10T22:02:51;23.20;42.70
6520;DHT22;3293;51.690;5.982;2023-06-10T22:07:51;23.10;44.10
6520;DHT22;3293;51.690;5.982;2023-06-10T22:12:52;23.10;44.50
6520;DHT22;3293;51.690;5.982;2023-06-10T22:17:52;23.10;45.10
6520;DHT22;3293;51.690;5.982;2023-06-10T22:22:54;23.00;45.40
6520;DHT22;3293;51.690;5.982;2023-06-10T22:27:54;23.00;45.80
6520;DHT22;3293;51.690;5.982;2023-06-10T22:32:55;22.90;46.50
6520;DHT22;3293;51.690;5.982;2023-06-10T22:37:56;22.80;47.30
6520;DHT22;3293;51.690;5.982;2023-06-10T22:42:56;22.80;48.40
6520;DHT22;3293;51.690;5.982;2023-06-10T22:47:57;22.70;49.50
6520;DHT22;3293;51.690;5.982;2023-06-10T22:52:58;22.50;51.30
6520;DHT22;3293;51.690;5.982;2023-06-10T22:57:58;22.40;52.80
6520;DHT22;3293;51.690;5.982;2023-06-10T23:03:00;22.30;53.80
6520;DHT22;3293;51.690;5.982;2023-06-10T23:08:02;22.20;55.10
6520;DHT22;3293;51.690;5.982;2023-06-10T23:13:02;22.20;56.20
6520;DHT22;3293;51.690;5.982;2023-06-10T23:18:03;22.10;57.80
6520;DHT22;3293;51.690;5.982;2023-06-10T23:23:03;22.00;59.30
6520;DHT22;3293;51.690;5.982;2023-06-10T23:28:03;21.90;61.80
6520;DHT22;3293;51.690;5.982;2023-06-10T23:33:04;21.80;63.40
6520;DHT22;3293;51.690;5.982;2023-06-10T23:38:05;21.60;66.00
6520;DHT22;3293;51.690;5.982;2023-06-10T23:43:05;21.50;68.30
6520;DHT22;3293;51.690;5.982;2023-06-10T23:48:05;21.40;70.70
6520;DHT22;3293;51.690;5.982;2023-06-10T23:53:05;21.40;72.30
6520;DHT22;3293;51.690;5.982;2023-06-10T23:58:05;21.40;73.10
